Raven — WUT9940 — position and weather

sailwx.info

Track history (hours):
 
Tides and Currents Weather Stations Pressure Air Temp Water Temp Dewpoint Dewpoint Depression Visibility Wind Speed Wind Dir Waves Ship Positions

Raven

Owner: RAVEN ENTERPRISES, NEWPORT, OR. More information available from US FCC via Universal Licensing System and Coast Guard Vessel Documentation Center.

Last reported at 2017-Nov-02 12:35 UTC. Time now 2017-Dec-17 09:51 UTC.
Position N 45°13' W 124°14'.
Warning: this ship's position is 44 days out of date.

MMSI: 367773988.

Date/timePositionNaut miles runAvg speedWind from/ knotsBaromVisibWave heightAir tempDewpointWater temp
2017-Nov-02 12:35N 45°13' W 124°14'1 9.7
2017-Nov-02 12:30N 45°14' W 124°15'5 9.5
2017-Nov-02 12:01N 45°18' W 124°16'5 9.3
2017-Nov-02 11:30N 45°23' W 124°17'5 9.3
2017-Nov-02 11:00N 45°27' W 124°18'5 9.4
2017-Nov-02 10:31N 45°32' W 124°19'5 9.6
2017-Nov-02 10:01N 45°37' W 124°20'5 9.7
2017-Nov-02 09:31N 45°42' W 124°21'5 9.8
2017-Nov-02 09:01N 45°46' W 124°22'714.8
2017-Nov-02 08:30N 45°54' W 124°24'2 4.2
2017-Nov-02 08:01N 45°56' W 124°24'4 8.9
2017-Nov-02 07:31N 46°00' W 124°25'4 8.6
2017-Nov-02 07:01N 46°04' W 124°26'4 8.5
2017-Nov-02 06:30N 46°09' W 124°27'4 8.7
2017-Nov-02 06:00N 46°13' W 124°28'4 8.9
2017-Nov-02 05:31N 46°17' W 124°29'4 8.8
2017-Nov-02 05:00N 46°22' W 124°30'4 8.9
2017-Nov-02 04:30N 46°26' W 124°31'5 9.1
2017-Nov-02 04:01N 46°31' W 124°32'5 9.4
2017-Nov-02 03:30N 46°35' W 124°33'5 9.4
2017-Nov-02 03:00N 46°40' W 124°34'5 9.2
2017-Nov-02 02:31N 46°44' W 124°36'5 9.0
2017-Nov-02 02:01N 46°49' W 124°37'5 9.0
2017-Nov-02 01:30N 46°53' W 124°38'4 8.7
2017-Nov-02 01:01N 46°58' W 124°39'72 3.0
2017-Nov-01 00:42N 48°05' W 125°16'1 2.8
2017-Nov-01 00:16N 48°06' W 125°14'1 2.4
2017-Oct-31 23:53N 48°06' W 125°13'1 3.0
2017-Oct-31 23:30N 48°05' W 125°15'1 2.0
2017-Oct-31 22:49N 48°06' W 125°17'5 1.8
2017-Oct-31 20:10N 48°10' W 125°15'1 3.3
2017-Oct-31 19:48N 48°09' W 125°16'1 3.3
2017-Oct-31 19:30N 48°08' W 125°16'2 3.4
2017-Oct-31 18:57N 48°06' W 125°17'1 1.1
2017-Oct-31 17:42N 48°08' W 125°17'2 9.3
2017-Oct-31 17:27N 48°08' W 125°13'4 8.0
2017-Oct-31 17:01N 48°08' W 125°08'1 1.2
2017-Oct-31 16:30N 48°07' W 125°08'2 3.0
2017-Oct-31 15:55N 48°09' W 125°08'0 0.7
2017-Oct-31 15:29N 48°09' W 125°08'2 2.9
2017-Oct-31 14:55N 48°09' W 125°06'2 4.9
2017-Oct-31 14:29N 48°06' W 125°06'1 1.5
2017-Oct-31 14:00N 48°07' W 125°07'4 8.5
2017-Oct-31 13:30N 48°03' W 125°04'4 8.5
2017-Oct-31 13:00N 47°59' W 125°01'6 8.1
2017-Oct-31 12:19N 47°54' W 124°57'3 8.0
2017-Oct-31 12:00N 47°52' W 124°56'16 8.4
2017-Oct-31 10:08N 47°38' W 124°45'1 9.0
2017-Oct-31 10:00N 47°37' W 124°44'2110.0
2017-Oct-31 07:54N 47°18' W 124°30'1 3.0
2017-Oct-31 07:30N 47°17' W 124°29'9 9.2
2017-Oct-31 06:30N 47°09' W 124°23'6 9.3
2017-Oct-31 05:49N 47°03' W 124°19'3 9.5
2017-Oct-31 05:31N 47°01' W 124°17'5 9.3
2017-Oct-31 05:01N 46°56' W 124°14'4 7.9
2017-Oct-31 04:30N 46°55' W 124°09'2 3.4
2017-Oct-31 04:00N 46°54' W 124°06'0 0.0
2017-Oct-31 03:31N 46°54' W 124°06'0 0.0
2017-Oct-31 03:01N 46°54' W 124°06'0 0.0
2017-Oct-31 02:30N 46°54' W 124°06'0 0.0
2017-Oct-31 02:00N 46°54' W 124°06'0 0.0
2017-Oct-31 01:28N 46°54' W 124°06'0 0.0
2017-Oct-31 01:00N 46°54' W 124°06'0 0.0
2017-Oct-31 00:30N 46°54' W 124°06'0 0.0
2017-Oct-31 00:00N 46°54' W 124°06'0 0.0
2017-Oct-30 23:31N 46°54' W 124°06'0 0.0
2017-Oct-30 23:00N 46°54' W 124°06'0 0.1
2017-Oct-30 22:31N 46°54' W 124°06'0 0.0
2017-Oct-30 22:00N 46°54' W 124°06'0 0.0
2017-Oct-30 21:30N 46°54' W 124°06'0 0.0
2017-Oct-30 21:00N 46°54' W 124°06'0 0.0
2017-Oct-30 20:31N 46°54' W 124°06'0 0.0
2017-Oct-30 20:00N 46°54' W 124°06'0 0.0
2017-Oct-30 19:30N 46°54' W 124°06'0 0.0
2017-Oct-30 19:00N 46°54' W 124°06'0 0.0
2017-Oct-30 18:30N 46°54' W 124°06'0 0.0
2017-Oct-30 18:00N 46°54' W 124°06'0 0.0
2017-Oct-30 12:38N 46°54' W 124°06'0 1.2
2017-Oct-30 12:30N 46°55' W 124°06'4 8.2
2017-Oct-30 12:00N 46°55' W 124°12'3 6.3
2017-Oct-30 11:31N 46°57' W 124°15'3 5.9
2017-Oct-30 11:00N 46°60' W 124°17'3 5.8
2017-Oct-30 10:31N 47°02' W 124°20'3 5.9
2017-Oct-30 10:00N 47°05' W 124°22'3 6.1
2017-Oct-30 09:30N 47°08' W 124°24'3 6.2
2017-Oct-30 09:00N 47°10' W 124°26'3 5.8
2017-Oct-30 08:29N 47°13' W 124°29'4 5.8
2017-Oct-30 07:46N 47°16' W 124°32'56 6.0
2017-Oct-29 22:20N 48°05' W 125°13'1 1.7
2017-Oct-29 21:55N 48°05' W 125°15'2 3.2
2017-Oct-29 21:21N 48°05' W 125°17'5 2.3
2017-Oct-29 19:02N 48°10' W 125°15'1 3.4
2017-Oct-29 18:53N 48°10' W 125°15'2 3.1
2017-Oct-29 18:17N 48°12' W 125°13'0 0.2
2017-Oct-29 17:58N 48°12' W 125°13'0 0.3
2017-Oct-29 17:25N 48°12' W 125°13'4 9.0
2017-Oct-29 16:58N 48°09' W 125°16'74 9.8
2017-Oct-29 09:23N 46°60' W 124°35'410.1
2017-Oct-29 09:00N 46°56' W 124°33'610.0
2017-Oct-29 08:21N 46°50' W 124°29'3 9.8
2017-Oct-29 08:00N 46°47' W 124°27'5 9.9
2017-Oct-29 07:31N 46°43' W 124°24'5 9.7
2017-Oct-29 07:00N 46°38' W 124°22'510.0
2017-Oct-29 06:30N 46°34' W 124°19'510.0
2017-Oct-29 06:00N 46°29' W 124°16'5 9.9
2017-Oct-29 05:31N 46°25' W 124°13'5 9.4
2017-Oct-29 05:00N 46°20' W 124°10'5 9.5
2017-Oct-29 04:30N 46°16' W 124°08'5 9.6
2017-Oct-29 04:00N 46°15' W 124°01'4 0.5
2017-Oct-28 19:00N 46°14' W 124°07'4 8.3
2017-Oct-28 18:30N 46°11' W 124°11'5 9.5
2017-Oct-28 18:01N 46°07' W 124°14'5 9.3
2017-Oct-28 17:31N 46°03' W 124°18'6 9.1
2017-Oct-28 16:52N 45°58' W 124°22'5 9.0
2017-Oct-28 16:17N 45°53' W 124°26'2 8.9
2017-Oct-28 16:01N 45°51' W 124°27'1113.2
2017-Oct-28 15:08N 45°41' W 124°36'0 0.1
2017-Oct-28 14:47N 45°41' W 124°36'3 9.6
2017-Oct-28 14:31N 45°39' W 124°38'5 9.6
2017-Oct-28 14:01N 45°34' W 124°38'5 9.6
2017-Oct-28 13:31N 45°29' W 124°38'5 9.7
2017-Oct-28 13:00N 45°24' W 124°38'5 9.6
2017-Oct-28 12:30N 45°20' W 124°39'5 9.5
2017-Oct-28 12:01N 45°15' W 124°39'6 9.6
2017-Oct-28 11:22N 45°09' W 124°39'3 9.5
2017-Oct-28 11:00N 45°05' W 124°39'5 9.5
2017-Oct-28 10:29N 45°00' W 124°39'15 9.2
2017-Oct-28 08:51N 44°45' W 124°40'14 8.9
2017-Oct-28 07:15N 44°31' W 124°41'7 4.1
2017-Oct-28 05:36N 44°27' W 124°48'1 8.5
2017-Oct-28 05:28N 44°25' W 124°48'4 8.5
2017-Oct-28 04:57N 44°21' W 124°49'9 8.2
2017-Oct-28 03:51N 44°12' W 124°49'6 8.1
2017-Oct-28 03:04N 44°06' W 124°50'1 8.4
2017-Oct-28 03:00N 44°05' W 124°50'6 0.2
2017-Oct-26 11:10N 44°02' W 124°57'0 0.0
2017-Oct-26 11:00N 44°02' W 124°57'51 2.9
2017-Oct-25 17:11N 44°36' W 124°05'0 1.3
2017-Oct-25 16:51N 44°36' W 124°06'3 8.1
2017-Oct-25 16:31N 44°34' W 124°08'5 8.6
2017-Oct-25 15:56N 44°29' W 124°10'44 1.2
2017-Oct-24 04:44N 43°50' W 124°38'2 6.7
2017-Oct-24 04:30N 43°52' W 124°39'3 6.7
2017-Oct-24 04:00N 43°54' W 124°42'4 7.0
2017-Oct-24 03:27N 43°55' W 124°48'9 5.8
2017-Oct-24 01:57N 44°01' W 124°56'4 8.1
2017-Oct-24 01:31N 44°04' W 124°57'0 0.6
2017-Oct-24 00:44N 44°05' W 124°57'1 2.8
2017-Oct-24 00:17N 44°04' W 124°57'1 2.9
2017-Oct-23 23:59N 44°03' W 124°57'1 3.1
2017-Oct-23 23:30N 44°01' W 124°57'2 3.1
2017-Oct-23 22:44N 43°59' W 124°58'1 3.0
2017-Oct-23 22:21N 43°58' W 124°58'1 3.1
2017-Oct-23 22:00N 43°57' W 124°57'4 6.0
2017-Oct-23 21:24N 43°54' W 124°53'34 6.2
2017-Oct-23 15:55N 44°28' W 124°45'3 7.8
2017-Oct-23 15:29N 44°31' W 124°42'8 7.1
2017-Oct-23 14:18N 44°38' W 124°38'3 5.5
2017-Oct-23 13:45N 44°41' W 124°37'4 4.5
2017-Oct-23 12:54N 44°45' W 124°36'  
Track history (hours):
 
Tides and Currents Weather Stations Pressure Air Temp Water Temp Dewpoint Dewpoint Depression Visibility Wind Speed Wind Dir Waves Ship Positions

Raven

Owner: RAVEN ENTERPRISES, NEWPORT, OR. More information available from US FCC via Universal Licensing System and Coast Guard Vessel Documentation Center.

Last reported at 2017-Nov-02 12:35 UTC. Time now 2017-Dec-17 09:51 UTC.
Position N 45°13' W 124°14'.
Warning: this ship's position is 44 days out of date.

MMSI: 367773988.

Date/timePositionNaut miles runAvg speedWind from/ knotsBaromVisibWave heightAir tempDewpointWater temp
2017-Nov-02 12:35N 45°13' W 124°14'1 9.7
2017-Nov-02 12:30N 45°14' W 124°15'5 9.5
2017-Nov-02 12:01N 45°18' W 124°16'5 9.3
2017-Nov-02 11:30N 45°23' W 124°17'5 9.3
2017-Nov-02 11:00N 45°27' W 124°18'5 9.4
2017-Nov-02 10:31N 45°32' W 124°19'5 9.6
2017-Nov-02 10:01N 45°37' W 124°20'5 9.7
2017-Nov-02 09:31N 45°42' W 124°21'5 9.8
2017-Nov-02 09:01N 45°46' W 124°22'714.8
2017-Nov-02 08:30N 45°54' W 124°24'2 4.2
2017-Nov-02 08:01N 45°56' W 124°24'4 8.9
2017-Nov-02 07:31N 46°00' W 124°25'4 8.6
2017-Nov-02 07:01N 46°04' W 124°26'4 8.5
2017-Nov-02 06:30N 46°09' W 124°27'4 8.7
2017-Nov-02 06:00N 46°13' W 124°28'4 8.9
2017-Nov-02 05:31N 46°17' W 124°29'4 8.8
2017-Nov-02 05:00N 46°22' W 124°30'4 8.9
2017-Nov-02 04:30N 46°26' W 124°31'5 9.1
2017-Nov-02 04:01N 46°31' W 124°32'5 9.4
2017-Nov-02 03:30N 46°35' W 124°33'5 9.4
2017-Nov-02 03:00N 46°40' W 124°34'5 9.2
2017-Nov-02 02:31N 46°44' W 124°36'5 9.0
2017-Nov-02 02:01N 46°49' W 124°37'5 9.0
2017-Nov-02 01:30N 46°53' W 124°38'4 8.7
2017-Nov-02 01:01N 46°58' W 124°39'72 3.0
2017-Nov-01 00:42N 48°05' W 125°16'1 2.8
2017-Nov-01 00:16N 48°06' W 125°14'1 2.4
2017-Oct-31 23:53N 48°06' W 125°13'1 3.0
2017-Oct-31 23:30N 48°05' W 125°15'1 2.0
2017-Oct-31 22:49N 48°06' W 125°17'5 1.8
2017-Oct-31 20:10N 48°10' W 125°15'1 3.3
2017-Oct-31 19:48N 48°09' W 125°16'1 3.3
2017-Oct-31 19:30N 48°08' W 125°16'2 3.4
2017-Oct-31 18:57N 48°06' W 125°17'1 1.1
2017-Oct-31 17:42N 48°08' W 125°17'2 9.3
2017-Oct-31 17:27N 48°08' W 125°13'4 8.0
2017-Oct-31 17:01N 48°08' W 125°08'1 1.2
2017-Oct-31 16:30N 48°07' W 125°08'2 3.0
2017-Oct-31 15:55N 48°09' W 125°08'0 0.7
2017-Oct-31 15:29N 48°09' W 125°08'2 2.9
2017-Oct-31 14:55N 48°09' W 125°06'2 4.9
2017-Oct-31 14:29N 48°06' W 125°06'1 1.5
2017-Oct-31 14:00N 48°07' W 125°07'4 8.5
2017-Oct-31 13:30N 48°03' W 125°04'4 8.5
2017-Oct-31 13:00N 47°59' W 125°01'6 8.1
2017-Oct-31 12:19N 47°54' W 124°57'3 8.0
2017-Oct-31 12:00N 47°52' W 124°56'16 8.4
2017-Oct-31 10:08N 47°38' W 124°45'1 9.0
2017-Oct-31 10:00N 47°37' W 124°44'2110.0
2017-Oct-31 07:54N 47°18' W 124°30'1 3.0
2017-Oct-31 07:30N 47°17' W 124°29'9 9.2
2017-Oct-31 06:30N 47°09' W 124°23'6 9.3
2017-Oct-31 05:49N 47°03' W 124°19'3 9.5
2017-Oct-31 05:31N 47°01' W 124°17'5 9.3
2017-Oct-31 05:01N 46°56' W 124°14'4 7.9
2017-Oct-31 04:30N 46°55' W 124°09'2 3.4
2017-Oct-31 04:00N 46°54' W 124°06'0 0.0
2017-Oct-31 03:31N 46°54' W 124°06'0 0.0
2017-Oct-31 03:01N 46°54' W 124°06'0 0.0
2017-Oct-31 02:30N 46°54' W 124°06'0 0.0
2017-Oct-31 02:00N 46°54' W 124°06'0 0.0
2017-Oct-31 01:28N 46°54' W 124°06'0 0.0
2017-Oct-31 01:00N 46°54' W 124°06'0 0.0
2017-Oct-31 00:30N 46°54' W 124°06'0 0.0
2017-Oct-31 00:00N 46°54' W 124°06'0 0.0
2017-Oct-30 23:31N 46°54' W 124°06'0 0.0
2017-Oct-30 23:00N 46°54' W 124°06'0 0.1
2017-Oct-30 22:31N 46°54' W 124°06'0 0.0
2017-Oct-30 22:00N 46°54' W 124°06'0 0.0
2017-Oct-30 21:30N 46°54' W 124°06'0 0.0
2017-Oct-30 21:00N 46°54' W 124°06'0 0.0
2017-Oct-30 20:31N 46°54' W 124°06'0 0.0
2017-Oct-30 20:00N 46°54' W 124°06'0 0.0
2017-Oct-30 19:30N 46°54' W 124°06'0 0.0
2017-Oct-30 19:00N 46°54' W 124°06'0 0.0
2017-Oct-30 18:30N 46°54' W 124°06'0 0.0
2017-Oct-30 18:00N 46°54' W 124°06'0 0.0
2017-Oct-30 12:38N 46°54' W 124°06'0 1.2
2017-Oct-30 12:30N 46°55' W 124°06'4 8.2
2017-Oct-30 12:00N 46°55' W 124°12'3 6.3
2017-Oct-30 11:31N 46°57' W 124°15'3 5.9
2017-Oct-30 11:00N 46°60' W 124°17'3 5.8
2017-Oct-30 10:31N 47°02' W 124°20'3 5.9
2017-Oct-30 10:00N 47°05' W 124°22'3 6.1
2017-Oct-30 09:30N 47°08' W 124°24'3 6.2
2017-Oct-30 09:00N 47°10' W 124°26'3 5.8
2017-Oct-30 08:29N 47°13' W 124°29'4 5.8
2017-Oct-30 07:46N 47°16' W 124°32'56 6.0
2017-Oct-29 22:20N 48°05' W 125°13'1 1.7
2017-Oct-29 21:55N 48°05' W 125°15'2 3.2
2017-Oct-29 21:21N 48°05' W 125°17'5 2.3
2017-Oct-29 19:02N 48°10' W 125°15'1 3.4
2017-Oct-29 18:53N 48°10' W 125°15'2 3.1
2017-Oct-29 18:17N 48°12' W 125°13'0 0.2
2017-Oct-29 17:58N 48°12' W 125°13'0 0.3
2017-Oct-29 17:25N 48°12' W 125°13'4 9.0
2017-Oct-29 16:58N 48°09' W 125°16'74 9.8
2017-Oct-29 09:23N 46°60' W 124°35'410.1
2017-Oct-29 09:00N 46°56' W 124°33'610.0
2017-Oct-29 08:21N 46°50' W 124°29'3 9.8
2017-Oct-29 08:00N 46°47' W 124°27'5 9.9
2017-Oct-29 07:31N 46°43' W 124°24'5 9.7
2017-Oct-29 07:00N 46°38' W 124°22'510.0
2017-Oct-29 06:30N 46°34' W 124°19'510.0
2017-Oct-29 06:00N 46°29' W 124°16'5 9.9
2017-Oct-29 05:31N 46°25' W 124°13'5 9.4
2017-Oct-29 05:00N 46°20' W 124°10'5 9.5
2017-Oct-29 04:30N 46°16' W 124°08'5 9.6
2017-Oct-29 04:00N 46°15' W 124°01'4 0.5
2017-Oct-28 19:00N 46°14' W 124°07'4 8.3
2017-Oct-28 18:30N 46°11' W 124°11'5 9.5
2017-Oct-28 18:01N 46°07' W 124°14'5 9.3
2017-Oct-28 17:31N 46°03' W 124°18'6 9.1
2017-Oct-28 16:52N 45°58' W 124°22'5 9.0
2017-Oct-28 16:17N 45°53' W 124°26'2 8.9
2017-Oct-28 16:01N 45°51' W 124°27'1113.2
2017-Oct-28 15:08N 45°41' W 124°36'0 0.1
2017-Oct-28 14:47N 45°41' W 124°36'3 9.6
2017-Oct-28 14:31N 45°39' W 124°38'5 9.6
2017-Oct-28 14:01N 45°34' W 124°38'5 9.6
2017-Oct-28 13:31N 45°29' W 124°38'5 9.7
2017-Oct-28 13:00N 45°24' W 124°38'5 9.6
2017-Oct-28 12:30N 45°20' W 124°39'5 9.5
2017-Oct-28 12:01N 45°15' W 124°39'6 9.6
2017-Oct-28 11:22N 45°09' W 124°39'3 9.5
2017-Oct-28 11:00N 45°05' W 124°39'5 9.5
2017-Oct-28 10:29N 45°00' W 124°39'15 9.2
2017-Oct-28 08:51N 44°45' W 124°40'14 8.9
2017-Oct-28 07:15N 44°31' W 124°41'7 4.1
2017-Oct-28 05:36N 44°27' W 124°48'1 8.5
2017-Oct-28 05:28N 44°25' W 124°48'4 8.5
2017-Oct-28 04:57N 44°21' W 124°49'9 8.2
2017-Oct-28 03:51N 44°12' W 124°49'6 8.1
2017-Oct-28 03:04N 44°06' W 124°50'1 8.4
2017-Oct-28 03:00N 44°05' W 124°50'6 0.2
2017-Oct-26 11:10N 44°02' W 124°57'0 0.0
2017-Oct-26 11:00N 44°02' W 124°57'51 2.9
2017-Oct-25 17:11N 44°36' W 124°05'0 1.3
2017-Oct-25 16:51N 44°36' W 124°06'3 8.1
2017-Oct-25 16:31N 44°34' W 124°08'5 8.6
2017-Oct-25 15:56N 44°29' W 124°10'44 1.2
2017-Oct-24 04:44N 43°50' W 124°38'2 6.7
2017-Oct-24 04:30N 43°52' W 124°39'3 6.7
2017-Oct-24 04:00N 43°54' W 124°42'4 7.0
2017-Oct-24 03:27N 43°55' W 124°48'9 5.8
2017-Oct-24 01:57N 44°01' W 124°56'4 8.1
2017-Oct-24 01:31N 44°04' W 124°57'0 0.6
2017-Oct-24 00:44N 44°05' W 124°57'1 2.8
2017-Oct-24 00:17N 44°04' W 124°57'1 2.9
2017-Oct-23 23:59N 44°03' W 124°57'1 3.1
2017-Oct-23 23:30N 44°01' W 124°57'2 3.1
2017-Oct-23 22:44N 43°59' W 124°58'1 3.0
2017-Oct-23 22:21N 43°58' W 124°58'1 3.1
2017-Oct-23 22:00N 43°57' W 124°57'4 6.0
2017-Oct-23 21:24N 43°54' W 124°53'34 6.2
2017-Oct-23 15:55N 44°28' W 124°45'3 7.8
2017-Oct-23 15:29N 44°31' W 124°42'8 7.1
2017-Oct-23 14:18N 44°38' W 124°38'3 5.5
2017-Oct-23 13:45N 44°41' W 124°37'4 4.5
2017-Oct-23 12:54N 44°45' W 124°36'  

Dump ship's entire track history